Flamengo — HPMX — position and weather

sailwx.info

Track history (hours):
 
Tides and Currents Weather Stations Pressure Air Temp Water Temp Dewpoint Dewpoint Depression Visibility Wind Speed Wind Dir Waves Ship Positions

Flamengo

Last reported at 2017-Sep-21 16:10 UTC. Time now 2017-Sep-25 15:03 UTC.
Position N 32°16' E 033°43'.

Length 119 m; draft 5.8 m.

Type: Tanker. MMSI: 355960000.

Date/timePositionNaut miles runAvg speedWind from/ knotsBaromVisibWave heightAir tempDewpointWater temp
2017-Sep-21 16:10N 32°16' E 033°43'0 0.6
2017-Sep-21 15:56N 32°16' E 033°42'3 5.6
2017-Sep-21 15:24N 32°15' E 033°46'511.9
2017-Sep-21 15:00N 32°13' E 033°51'612.0
2017-Sep-21 14:29N 32°11' E 033°58'4 2.9
2017-Sep-21 13:07N 32°11' E 034°03'11 0.8
2017-Sep-20 22:36N 32°18' E 033°52'0 0.8
2017-Sep-20 22:18N 32°19' E 033°52'0 1.0
2017-Sep-20 22:00N 32°19' E 033°52'6 5.9
2017-Sep-20 21:00N 32°15' E 033°57'4 8.8
2017-Sep-20 20:30N 32°11' E 034°00'3 5.7
2017-Sep-20 19:59N 32°09' E 034°02'0 0.8
2017-Sep-20 19:30N 32°09' E 034°02'0 0.8
2017-Sep-20 19:00N 32°09' E 034°02'1 0.9
2017-Sep-20 18:00N 32°10' E 034°01'0 0.9
2017-Sep-20 17:30N 32°11' E 034°01'0 0.9
2017-Sep-20 16:56N 32°11' E 034°01'0 0.9
2017-Sep-20 16:29N 32°11' E 034°01'1 0.9
2017-Sep-20 15:54N 32°12' E 034°00'0 0.9
2017-Sep-20 15:30N 32°12' E 033°60'1 0.9
2017-Sep-20 14:56N 32°12' E 033°60'  
2017-Sep-12 06:54N 36°14' E 014°50'613.7
2017-Sep-12 06:30N 36°15' E 014°43'713.8
2017-Sep-12 06:00N 36°17' E 014°35'713.8
2017-Sep-12 05:30N 36°18' E 014°27'713.9
2017-Sep-12 05:00N 36°20' E 014°18'714.0
2017-Sep-12 04:30N 36°22' E 014°10'714.1
2017-Sep-12 04:00N 36°24' E 014°02'714.0
2017-Sep-12 03:30N 36°27' E 013°53'713.8
2017-Sep-12 03:00N 36°29' E 013°46'  
Track history (hours):
 
Tides and Currents Weather Stations Pressure Air Temp Water Temp Dewpoint Dewpoint Depression Visibility Wind Speed Wind Dir Waves Ship Positions

Flamengo

Last reported at 2017-Sep-21 16:10 UTC. Time now 2017-Sep-25 15:03 UTC.
Position N 32°16' E 033°43'.

Length 119 m; draft 5.8 m.

Type: Tanker. MMSI: 355960000.

Date/timePositionNaut miles runAvg speedWind from/ knotsBaromVisibWave heightAir tempDewpointWater temp
2017-Sep-21 16:10N 32°16' E 033°43'0 0.6
2017-Sep-21 15:56N 32°16' E 033°42'3 5.6
2017-Sep-21 15:24N 32°15' E 033°46'511.9
2017-Sep-21 15:00N 32°13' E 033°51'612.0
2017-Sep-21 14:29N 32°11' E 033°58'4 2.9
2017-Sep-21 13:07N 32°11' E 034°03'11 0.8
2017-Sep-20 22:36N 32°18' E 033°52'0 0.8
2017-Sep-20 22:18N 32°19' E 033°52'0 1.0
2017-Sep-20 22:00N 32°19' E 033°52'6 5.9
2017-Sep-20 21:00N 32°15' E 033°57'4 8.8
2017-Sep-20 20:30N 32°11' E 034°00'3 5.7
2017-Sep-20 19:59N 32°09' E 034°02'0 0.8
2017-Sep-20 19:30N 32°09' E 034°02'0 0.8
2017-Sep-20 19:00N 32°09' E 034°02'1 0.9
2017-Sep-20 18:00N 32°10' E 034°01'0 0.9
2017-Sep-20 17:30N 32°11' E 034°01'0 0.9
2017-Sep-20 16:56N 32°11' E 034°01'0 0.9
2017-Sep-20 16:29N 32°11' E 034°01'1 0.9
2017-Sep-20 15:54N 32°12' E 034°00'0 0.9
2017-Sep-20 15:30N 32°12' E 033°60'1 0.9
2017-Sep-20 14:56N 32°12' E 033°60'  
2017-Sep-12 06:54N 36°14' E 014°50'613.7
2017-Sep-12 06:30N 36°15' E 014°43'713.8
2017-Sep-12 06:00N 36°17' E 014°35'713.8
2017-Sep-12 05:30N 36°18' E 014°27'713.9
2017-Sep-12 05:00N 36°20' E 014°18'714.0
2017-Sep-12 04:30N 36°22' E 014°10'714.1
2017-Sep-12 04:00N 36°24' E 014°02'714.0
2017-Sep-12 03:30N 36°27' E 013°53'713.8
2017-Sep-12 03:00N 36°29' E 013°46'  

Dump ship's entire track history